Time;durP1;ratioP1;P1;durP2;ratioP2;P2;SDS_P1;SDS_P2;PMS_P1;PMS_P2;Temp;Humidity;BMP_temperature;BMP_pressure;BME280_temperature;BME280_humidity;BME280_pressure;Samples;Min_cycle;Max_cycle;Signal;HPM_P1;HPM_P2
2021/03/10 00:02:25;;;;;;;14.43;8.30;;;;;;;-2.77;43.92;101247.75;1704201;82;21103;-85
2021/03/10 00:04:56;;;;;;;11.07;7.20;;;;;;;-2.78;43.45;101247.35;1681170;82;21904;-83
2021/03/10 00:07:27;;;;;;;11.50;8.23;;;;;;;-2.80;43.72;101257.50;1696132;82;21205;-87
2021/03/10 00:09:57;;;;;;;9.63;6.67;;;;;;;-2.81;42.99;101240.98;1697664;82;21490;-86
2021/03/10 00:12:34;;;;;;;8.97;6.23;;;;;;;-2.80;42.56;101242.68;1672987;82;21114;-86
2021/03/10 00:15:06;;;;;;;15.83;6.90;;;;;;;-2.79;42.33;101248.73;1656531;84;21738;-86
2021/03/10 00:17:39;;;;;;;13.00;8.60;;;;;;;-2.79;42.50;101236.99;1706228;82;21190;-84
2021/03/10 00:20:08;;;;;;;16.13;9.40;;;;;;;-2.83;43.10;101238.91;1711572;82;21871;-86
2021/03/10 00:22:35;;;;;;;13.20;7.50;;;;;;;-2.81;43.49;101244.06;1719561;82;21106;-84
2021/03/10 00:25:05;;;;;;;20.90;11.40;;;;;;;-2.83;43.00;101240.69;1721522;82;21199;-84
2021/03/10 00:27:40;;;;;;;25.77;13.70;;;;;;;-2.83;44.03;101239.38;1722583;82;21190;-86
2021/03/10 00:30:11;;;;;;;24.73;13.20;;;;;;;-2.88;45.61;101236.16;1683692;83;21154;-84
2021/03/10 00:32:40;;;;;;;27.17;14.20;;;;;;;-3.00;46.66;101228.05;1679005;84;21190;-84
2021/03/10 00:35:10;;;;;;;23.00;13.10;;;;;;;-3.09;46.06;101232.42;1675911;82;21222;-83
2021/03/10 00:37:37;;;;;;;24.83;13.90;;;;;;;-3.14;45.54;101231.84;1677372;84;22012;-85
2021/03/10 00:40:06;;;;;;;22.57;13.77;;;;;;;-3.14;45.54;101227.46;1676433;84;22200;-84
2021/03/10 00:42:33;;;;;;;25.40;14.50;;;;;;;-3.15;46.82;101229.67;1675845;85;21224;-84
2021/03/10 00:45:00;;;;;;;22.53;12.27;;;;;;;-3.23;47.64;101229.70;1677009;84;21100;-83
2021/03/10 00:47:27;;;;;;;22.73;13.62;;;;;;;-3.29;47.65;101228.24;1680240;84;21176;-83
2021/03/10 00:49:54;;;;;;;16.80;11.83;;;;;;;-3.35;47.73;101232.00;1677199;84;21178;-84
2021/03/10 00:52:21;;;;;;;22.43;12.50;;;;;;;-3.33;46.41;101230.63;1645531;85;21373;-83
2021/03/10 00:54:48;;;;;;;26.90;13.93;;;;;;;-3.31;45.93;101227.48;1662289;84;21176;-83
2021/03/10 00:57:15;;;;;;;28.90;16.37;;;;;;;-3.65;46.34;101181.41;1689728;83;22222;-83
2021/03/10 00:59:42;;;;;;;27.37;16.50;;;;;;;-3.33;47.66;101231.93;1686533;84;21195;-84
2021/03/10 01:02:11;;;;;;;25.73;15.53;;;;;;;-3.43;48.46;101234.13;1662539;84;21140;-84
2021/03/10 01:04:40;;;;;;;24.70;14.53;;;;;;;-3.52;48.93;101232.00;1633364;85;21381;-84
2021/03/10 01:07:06;;;;;;;;;;;;;;;-3.64;49.05;101236.03;1690552;83;21353;-83
2021/03/10 01:09:33;;;;;;;28.40;16.90;;;;;;;-3.74;49.65;101240.02;1669879;83;20299;-82
2021/03/10 01:12:00;;;;;;;28.73;15.50;;;;;;;-3.88;49.95;101227.66;1668696;84;21134;-83
2021/03/10 01:14:28;;;;;;;33.37;18.27;;;;;;;-4.01;50.38;101230.01;1690508;83;21222;-85
2021/03/10 01:16:54;;;;;;;;;;;;;;;-4.08;50.91;101225.16;1698119;83;21332;-84
2021/03/10 01:19:22;;;;;;;28.80;17.62;;;;;;;-4.16;51.06;101226.36;1695805;83;20229;-82
2021/03/10 01:21:49;;;;;;;;;;;;;;;-4.29;51.38;101225.25;1696780;84;21225;-83
2021/03/10 01:24:16;;;;;;;26.80;17.10;;;;;;;-4.33;51.63;101225.01;1688085;84;20202;-83
2021/03/10 01:26:43;;;;;;;31.10;18.47;;;;;;;-4.44;51.95;101222.05;1695215;84;21543;-80
2021/03/10 01:29:10;;;;;;;;;;;;;;;-4.44;52.09;101229.86;1695071;83;21178;-82
2021/03/10 01:31:37;;;;;;;41.90;21.65;;;;;;;-4.45;52.25;101221.66;1697935;83;20209;-83
2021/03/10 01:34:05;;;;;;;43.20;22.07;;;;;;;-4.52;52.29;101224.98;1695300;83;21147;-84
2021/03/10 01:36:33;;;;;;;;;;;;;;;-4.51;52.52;101223.61;1697204;83;21906;-84
2021/03/10 01:39:00;;;;;;;40.47;21.03;;;;;;;-4.51;52.75;101230.12;1686433;83;20205;-85
2021/03/10 01:41:28;;;;;;;36.73;20.87;;;;;;;-4.59;53.03;101232.23;1690175;83;21818;-83
2021/03/10 01:43:55;;;;;;;32.53;19.80;;;;;;;-4.60;53.20;101240.94;1677464;83;21386;-84
2021/03/10 01:46:22;;;;;;;;;;;;;;;-4.63;53.52;101230.69;1692821;83;21200;-82
2021/03/10 01:48:49;;;;;;;35.30;20.97;;;;;;;-4.65;53.43;101224.71;1693085;83;20286;-80
2021/03/10 01:51:18;;;;;;;38.97;20.30;;;;;;;-4.73;53.69;101231.99;1643492;85;21407;-82
2021/03/10 01:53:45;;;;;;;40.10;20.23;;;;;;;-4.78;53.85;101230.08;1691042;84;21205;-82
2021/03/10 01:56:12;;;;;;;;;;;;;;;-4.78;54.04;101230.91;1689572;84;21237;-83
2021/03/10 01:58:39;;;;;;;51.55;23.98;;;;;;;-4.79;54.40;101227.91;1693428;84;20830;-84
2021/03/10 02:01:06;;;;;;;;;;;;;;;-4.81;54.62;101233.64;1698700;83;22275;-82
2021/03/10 02:03:33;;;;;;;47.17;24.27;;;;;;;-4.81;54.61;101227.13;1686146;83;20188;-81
2021/03/10 02:06:00;;;;;;;50.07;23.13;;;;;;;-4.84;54.82;101226.42;1697493;83;21210;-83
2021/03/10 02:08:57;;;;;;;45.13;24.33;;;;;;;-4.77;55.04;101233.05;1714420;82;21185;-83
2021/03/10 02:11:48;;;;;;;44.07;24.77;;;;;;;-4.77;55.03;101244.75;1706841;82;21129;-83
2021/03/10 02:14:34;;;;;;;47.43;25.73;;;;;;;-4.79;54.98;101234.88;1713586;82;21189;-84
2021/03/10 02:17:08;;;;;;;51.57;26.53;;;;;;;-4.79;55.12;101231.80;1693874;82;21205;-82
2021/03/10 02:20:05;;;;;;;49.90;26.53;;;;;;;-4.79;55.09;101240.91;1692285;82;21177;-82
2021/03/10 02:23:20;;;;;;;50.00;25.57;;;;;;;-4.80;55.21;101241.84;1689765;82;21932;-81
2021/03/10 02:26:29;;;;;;;48.17;26.13;;;;;;;-4.79;55.26;101239.61;1659896;83;21223;-82
2021/03/10 02:29:02;;;;;;;47.48;29.80;;;;;;;-4.82;55.45;101243.67;1684534;83;21330;-84
2021/03/10 02:31:35;;;;;;;54.23;28.93;;;;;;;-4.81;55.68;101240.60;1674335;83;21227;-82
2021/03/10 02:34:06;;;;;;;52.63;27.27;;;;;;;-4.84;55.86;101243.33;1675756;82;21054;-83
2021/03/10 02:36:37;;;;;;;46.33;27.50;;;;;;;-4.81;56.05;101239.30;1700275;82;21202;-81
2021/03/10 02:39:07;;;;;;;51.73;27.77;;;;;;;-4.81;55.95;101231.50;1712567;82;21209;-81
2021/03/10 02:41:35;;;;;;;56.17;28.67;;;;;;;-4.80;55.89;101237.94;1699909;83;21590;-81
2021/03/10 02:44:03;;;;;;;48.33;24.80;;;;;;;-4.76;56.08;101236.05;1676421;84;21667;-82
2021/03/10 02:46:31;;;;;;;64.67;30.47;;;;;;;-4.75;55.33;101240.33;1697521;83;21268;-82
2021/03/10 02:48:59;;;;;;;59.20;33.30;;;;;;;-5.51;55.28;101112.33;1700778;83;21240;-82
2021/03/10 02:51:28;;;;;;;64.70;33.90;;;;;;;-4.77;56.16;101235.19;1715321;83;21234;-82
2021/03/10 02:53:55;;;;;;;57.87;33.27;;;;;;;-4.79;56.55;101239.61;1699917;82;21759;-83
2021/03/10 02:56:22;;;;;;;61.27;32.43;;;;;;;-4.76;56.56;101237.34;1708548;82;21767;-81
2021/03/10 02:58:50;;;;;;;64.70;33.17;;;;;;;-4.77;56.61;101233.05;1705249;82;21672;-81
2021/03/10 03:01:18;;;;;;;63.23;34.80;;;;;;;-4.74;56.52;101240.73;1689269;82;21131;-81
2021/03/10 03:03:47;;;;;;;60.87;34.83;;;;;;;-4.74;56.52;101237.66;1696341;82;21228;-81
2021/03/10 03:06:14;;;;;;;;;;;;;;;-4.75;56.84;101237.26;1688253;82;21209;-83
2021/03/10 03:08:42;;;;;;;65.30;35.80;;;;;;;-4.71;56.89;101238.84;1656236;84;21004;-82
2021/03/10 03:11:12;;;;;;;67.40;34.77;;;;;;;-4.73;56.75;101238.50;1664610;82;21199;-80
2021/03/10 03:13:39;;;;;;;66.60;36.90;;;;;;;-4.71;56.36;101238.84;1692445;83;21180;-82
2021/03/10 03:16:08;;;;;;;67.27;36.73;;;;;;;-4.64;56.31;101235.95;1661807;83;21899;-83
2021/03/10 03:18:36;;;;;;;64.10;36.00;;;;;;;-4.62;56.45;101238.86;1701091;83;21979;-82
2021/03/10 03:21:03;;;;;;;;;;;;;;;-4.56;56.37;101234.70;1690543;83;21254;-81
2021/03/10 03:23:32;;;;;;;66.42;36.00;;;;;;;-4.51;55.91;101238.39;1710005;81;20179;-82
2021/03/10 03:26:01;;;;;;;79.73;41.83;;;;;;;-4.57;56.06;101243.41;1723185;81;21305;-81
2021/03/10 03:28:30;;;;;;;62.27;37.20;;;;;;;-4.56;56.11;101244.25;1734393;81;21179;-82
2021/03/10 03:30:59;;;;;;;68.90;38.87;;;;;;;-4.58;56.13;101239.57;1726789;81;21209;-82
2021/03/10 03:33:28;;;;;;;76.97;41.80;;;;;;;-4.59;56.04;101247.84;1737662;79;21048;-80
2021/03/10 03:35:57;;;;;;;77.27;41.27;;;;;;;-4.61;56.04;101241.87;1720820;81;21141;-82
2021/03/10 03:38:27;;;;;;;84.53;45.40;;;;;;;-4.65;56.31;101250.73;1722689;81;21080;-81
2021/03/10 03:40:56;;;;;;;86.20;45.93;;;;;;;-4.66;56.43;101245.12;1733970;81;21140;-81
2021/03/10 03:43:27;;;;;;;83.53;43.23;;;;;;;-4.71;56.49;101246.64;1736070;81;21624;-81
2021/03/10 03:45:54;;;;;;;88.90;47.03;;;;;;;-4.77;56.67;101253.39;1680275;83;21813;-83
2021/03/10 03:48:22;;;;;;;96.50;47.03;;;;;;;-4.76;56.71;101243.85;1704414;81;21290;-84
2021/03/10 03:50:49;;;;;;;95.53;48.13;;;;;;;-4.78;56.81;101246.98;1715686;81;21202;-85
2021/03/10 03:53:17;;;;;;;94.93;52.27;;;;;;;-4.76;56.71;101250.36;1699944;81;21635;-86
2021/03/10 03:55:44;;;;;;;94.87;49.97;;;;;;;-4.78;56.71;101245.22;1710965;81;21003;-85
2021/03/10 03:58:11;;;;;;;101.03;53.80;;;;;;;-4.79;56.76;101252.62;1712132;81;21289;-84
2021/03/10 04:00:39;;;;;;;96.90;52.30;;;;;;;-4.74;56.88;101254.56;1721014;81;21052;-84
2021/03/10 04:03:06;;;;;;;94.20;48.50;;;;;;;-4.74;56.91;101253.27;1722161;81;21183;-84
2021/03/10 04:05:33;;;;;;;102.27;54.33;;;;;;;-4.75;56.80;101249.42;1714396;81;21171;-84
2021/03/10 04:08:02;;;;;;;102.10;51.17;;;;;;;-4.75;56.81;101248.97;1691002;82;21194;-82
2021/03/10 04:10:33;;;;;;;104.13;50.80;;;;;;;-4.78;56.82;101250.88;1728147;81;21167;-83
2021/03/10 04:13:00;;;;;;;109.07;53.57;;;;;;;-4.80;57.01;101250.95;1709077;81;21053;-82
2021/03/10 04:15:30;;;;;;;106.33;55.27;;;;;;;-4.85;57.09;101248.16;1727077;81;21136;-83
2021/03/10 04:17:58;;;;;;;105.60;53.07;;;;;;;-4.92;57.20;101249.70;1710085;81;21175;-83
2021/03/10 04:20:25;;;;;;;108.83;54.73;;;;;;;-4.93;57.30;101249.33;1705874;81;21187;-82
2021/03/10 04:22:54;;;;;;;117.13;56.83;;;;;;;-4.95;57.45;101260.25;1696674;83;21967;-84
2021/03/10 04:25:22;;;;;;;113.17;59.60;;;;;;;-5.00;57.74;101250.50;1727670;80;21537;-84
2021/03/10 04:27:51;;;;;;;134.60;65.83;;;;;;;-4.98;57.89;101257.77;1722599;81;21175;-84
2021/03/10 04:30:20;;;;;;;143.73;68.77;;;;;;;-4.97;57.95;101254.28;1709606;81;21305;-83
2021/03/10 04:32:46;;;;;;;147.17;74.93;;;;;;;-4.95;57.77;101257.66;1715405;81;21148;-82
2021/03/10 04:35:16;;;;;;;157.10;74.87;;;;;;;-4.95;57.71;101255.52;1720999;81;21784;-82
2021/03/10 04:37:43;;;;;;;148.07;71.67;;;;;;;-4.96;57.78;101261.16;1727774;81;21152;-82
2021/03/10 04:40:12;;;;;;;149.20;71.43;;;;;;;-4.92;57.86;101262.70;1734461;81;21188;-82
2021/03/10 04:42:40;;;;;;;143.70;74.10;;;;;;;-4.82;57.73;101258.41;1709463;81;21221;-83
2021/03/10 04:45:12;;;;;;;139.50;71.10;;;;;;;-4.64;57.57;101261.97;1719052;81;21209;-82
2021/03/10 04:47:45;;;;;;;160.47;77.97;;;;;;;-4.25;57.38;101259.80;1701024;82;21358;-83
2021/03/10 04:50:16;;;;;;;149.63;77.00;;;;;;;-3.73;56.86;101263.40;1718283;81;21673;-83
2021/03/10 04:52:44;;;;;;;136.17;66.77;;;;;;;-3.05;55.40;101264.42;1703132;81;21796;-82
2021/03/10 04:55:12;;;;;;;119.27;61.37;;;;;;;-2.41;53.73;101255.00;1705280;82;21161;-80
2021/03/10 04:57:39;;;;;;;129.17;61.90;;;;;;;-1.72;52.09;101258.22;1715272;81;21180;-81
2021/03/10 05:00:11;;;;;;;114.97;60.33;;;;;;;-1.12;50.27;101257.39;1715745;81;21661;-82
2021/03/10 05:02:39;;;;;;;111.13;59.10;;;;;;;-0.51;48.23;101256.78;1703497;82;21194;-83
2021/03/10 05:05:09;;;;;;;117.07;59.47;;;;;;;-0.01;46.60;101254.94;1728540;81;21164;-82
2021/03/10 05:07:37;;;;;;;111.17;58.33;;;;;;;0.46;45.23;101261.17;1721190;81;21147;-83
2021/03/10 05:10:07;;;;;;;117.90;57.40;;;;;;;0.80;44.04;101265.02;1710135;82;21172;-81
2021/03/10 05:12:35;;;;;;;104.23;53.27;;;;;;;1.03;43.91;101259.53;1736661;81;21045;-83
2021/03/10 05:15:07;;;;;;;83.40;44.23;;;;;;;1.32;42.58;101256.73;1723356;82;21199;-82
2021/03/10 05:17:35;;;;;;;93.00;49.73;;;;;;;1.62;41.20;101262.95;1732087;81;21183;-82
2021/03/10 05:20:06;;;;;;;85.67;46.57;;;;;;;1.94;40.89;101259.80;1741486;81;21301;-81
2021/03/10 05:22:34;;;;;;;58.63;36.23;;;;;;;2.22;39.66;101260.45;1722431;81;21662;-84
2021/03/10 05:25:07;;;;;;;57.83;33.23;;;;;;;2.41;37.73;101264.75;1737101;81;21179;-82
2021/03/10 05:27:37;;;;;;;58.70;34.13;;;;;;;2.48;37.27;101262.48;1701839;82;21282;-84
2021/03/10 05:30:09;;;;;;;51.33;30.87;;;;;;;2.34;36.84;101269.61;1706597;81;21187;-84
2021/03/10 05:32:37;;;;;;;50.67;31.10;;;;;;;2.33;36.95;101267.91;1725838;81;21181;-82
2021/03/10 05:35:06;;;;;;;62.03;33.10;;;;;;;2.47;36.85;101272.67;1728385;81;21073;-84
2021/03/10 05:37:35;;;;;;;63.30;36.80;;;;;;;2.69;36.75;101273.22;1732125;81;21328;-83
2021/03/10 05:40:03;;;;;;;58.37;34.40;;;;;;;2.95;36.10;101270.44;1723380;81;21172;-84
2021/03/10 05:42:30;;;;;;;65.67;36.93;;;;;;;3.23;35.75;101267.37;1728220;81;21662;-85
2021/03/10 05:44:58;;;;;;;54.53;31.13;;;;;;;3.58;35.11;101270.86;1726633;81;21112;-84
2021/03/10 05:47:26;;;;;;;58.00;32.40;;;;;;;3.94;34.42;101269.77;1727417;81;21307;-84
2021/03/10 05:50:02;;;;;;;53.00;32.57;;;;;;;4.24;33.66;101278.34;1730115;81;21191;-84
2021/03/10 05:52:34;;;;;;;55.20;30.93;;;;;;;4.51;33.29;101279.70;1732138;81;21701;-84
2021/03/10 05:55:05;;;;;;;45.83;29.83;;;;;;;4.77;32.72;101276.72;1733635;81;21167;-84
2021/03/10 05:57:33;;;;;;;51.87;30.20;;;;;;;4.94;32.02;101279.28;1729146;81;21740;-84
2021/03/10 06:00:16;;;;;;;49.30;31.23;;;;;;;4.97;31.92;101280.32;1733631;81;21141;-83
2021/03/10 06:02:45;;;;;;;39.80;25.50;;;;;;;5.12;31.72;101280.34;1700969;82;21219;-83
2021/03/10 06:05:23;;;;;;;40.47;25.43;;;;;;;5.13;30.98;101289.97;1726608;82;21172;-83
2021/03/10 06:08:06;;;;;;;43.30;27.43;;;;;;;4.76;31.31;101289.56;1731602;81;21192;-85
2021/03/10 06:10:41;;;;;;;42.67;27.73;;;;;;;4.26;32.11;101301.49;1725391;80;21157;-83
2021/03/10 06:13:31;;;;;;;42.47;29.73;;;;;;;4.17;32.51;101294.31;1697239;82;21201;-84
2021/03/10 06:16:00;;;;;;;50.93;28.90;;;;;;;4.19;32.21;101298.16;1736661;80;21555;-83
2021/03/10 06:18:35;;;;;;;46.47;29.40;;;;;;;4.26;33.23;101297.53;1737259;80;21703;-84
2021/03/10 06:21:12;;;;;;;46.30;27.57;;;;;;;4.72;32.83;101302.17;1722255;81;21180;-83
2021/03/10 06:23:54;;;;;;;39.35;26.35;;;;;;;5.13;31.62;101307.14;1721491;81;21113;-83
2021/03/10 06:26:38;;;;;;;35.35;22.13;;;;;;;5.33;31.10;101300.64;1704699;82;21176;-85
2021/03/10 06:29:15;;;;;;;36.60;21.27;;;;;;;5.31;31.14;101311.84;1712229;81;21233;-84
2021/03/10 06:31:43;;;;;;;;;;;;;;;5.34;30.76;101303.66;1722753;81;21709;-86
2021/03/10 06:34:15;;;;;;;10.17;6.60;;;;;;;5.06;30.12;101300.69;1715646;81;20192;-84
2021/03/10 06:36:48;;;;;;;15.93;8.50;;;;;;;3.78;31.19;101304.91;1730481;81;21180;-85
2021/03/10 06:39:33;;;;;;;13.10;8.37;;;;;;;2.40;33.37;101309.59;1728040;81;21136;-85
2021/03/10 06:42:17;;;;;;;14.37;9.33;;;;;;;1.54;34.92;101317.80;1727351;81;21226;-85
2021/03/10 06:44:52;;;;;;;10.47;7.93;;;;;;;0.81;36.27;101317.90;1709056;81;21128;-85
2021/03/10 06:47:23;;;;;;;12.90;8.40;;;;;;;0.28;37.25;101311.70;1718535;81;21779;-83
2021/03/10 06:49:54;;;;;;;9.80;7.80;;;;;;;-0.08;37.46;101310.46;1722999;81;21081;-83
2021/03/10 06:52:31;;;;;;;13.27;7.60;;;;;;;-0.53;38.34;101322.34;1733833;81;21160;-83
2021/03/10 06:55:44;;;;;;;14.50;8.63;;;;;;;-0.76;38.32;101316.34;1716000;81;21040;-84
2021/03/10 06:58:23;;;;;;;10.37;8.00;;;;;;;-0.97;39.05;101316.67;1717196;81;21175;-83
2021/03/10 07:01:08;;;;;;;13.00;9.37;;;;;;;-1.09;39.47;101329.16;1728704;81;21085;-84
2021/03/10 07:03:49;;;;;;;14.37;7.00;;;;;;;-1.17;39.12;101326.98;1730856;81;21180;-84
2021/03/10 07:06:22;;;;;;;10.30;6.47;;;;;;;-1.29;39.36;101325.08;1710163;82;21266;-84
2021/03/10 07:08:58;;;;;;;11.93;7.73;;;;;;;-1.43;39.18;101330.63;1719400;81;21621;-83
2021/03/10 07:11:27;;;;;;;15.17;9.90;;;;;;;-1.47;39.40;101323.89;1700815;80;21353;-84
2021/03/10 07:14:00;;;;;;;16.03;9.77;;;;;;;-1.55;39.41;101328.69;1727183;81;21161;-83
2021/03/10 07:16:37;;;;;;;9.67;7.23;;;;;;;-1.54;39.33;101329.53;1709931;81;21283;-83
2021/03/10 07:19:33;;;;;;;8.17;5.73;;;;;;;-1.46;39.36;101320.33;1718340;82;21155;-82
2021/03/10 07:23:09;;;;;;;10.33;6.27;;;;;;;-1.31;38.78;101318.63;1718729;81;21044;-84
2021/03/10 07:25:45;;;;;;;10.03;7.17;;;;;;;-1.28;37.99;101327.62;1728021;81;21171;-85
2021/03/10 07:28:48;;;;;;;9.37;6.20;;;;;;;-1.38;38.91;101318.12;1717527;82;21152;-84
2021/03/10 07:31:51;;;;;;;8.13;5.77;;;;;;;-1.44;39.03;101318.47;1739104;78;21136;-87
2021/03/10 07:38:41;;;;;;;7.60;4.60;;;;;;;-1.45;37.85;101325.09;1720425;81;21152;-85
2021/03/10 07:41:43;;;;;;;5.53;3.93;;;;;;;-1.39;38.14;101315.14;1733163;79;21116;-83
2021/03/10 07:45:02;;;;;;;6.37;4.60;;;;;;;-1.21;37.36;101312.39;1720168;81;21077;-85
2021/03/10 07:48:05;;;;;;;6.13;4.90;;;;;;;-1.83;37.25;101211.33;1729427;81;21182;-83
2021/03/10 07:51:39;;;;;;;13.67;7.70;;;;;;;-1.29;37.60;101314.63;1736373;81;21164;-84
2021/03/10 07:54:27;;;;;;;13.23;7.53;;;;;;;-1.18;38.21;101316.98;1734066;81;21215;-84
2021/03/10 07:57:36;;;;;;;10.07;5.97;;;;;;;-1.09;38.69;101310.39;1728551;82;21665;-85
2021/03/10 08:00:43;;;;;;;8.27;6.10;;;;;;;-1.14;37.97;101313.73;1714131;81;21076;-85
2021/03/10 08:04:19;;;;;;;7.00;5.83;;;;;;;-1.09;38.11;101301.23;1733624;82;21237;-85
2021/03/10 08:07:35;;;;;;;10.07;6.73;;;;;;;-0.89;37.64;101305.28;1701153;84;21842;-84
2021/03/10 08:10:54;;;;;;;8.45;6.30;;;;;;;-0.87;37.78;101310.43;1699789;81;21181;-83
2021/03/10 08:14:22;;;;;;;7.15;5.30;;;;;;;-0.94;37.60;101313.02;1703250;81;21188;-83
2021/03/10 08:17:38;;;;;;;11.18;6.03;;;;;;;-0.88;37.57;101309.59;1720650;82;21555;-84
2021/03/10 08:21:19;;;;;;;5.83;4.43;;;;;;;-0.70;37.56;101310.73;1712938;82;21200;-84
2021/03/10 08:24:07;;;;;;;4.03;3.43;;;;;;;-0.76;36.81;101313.73;1699474;82;21040;-84
2021/03/10 08:26:58;;;;;;;4.77;3.30;;;;;;;-0.73;36.17;101312.25;1710821;82;21145;-84
2021/03/10 08:29:30;;;;;;;7.63;4.27;;;;;;;-0.65;35.77;101306.91;1675986;83;21192;-84
2021/03/10 08:32:30;;;;;;;4.80;3.67;;;;;;;-0.84;35.95;101247.44;1701331;82;21465;-83
2021/03/10 08:35:22;;;;;;;6.33;5.57;;;;;;;-0.42;35.81;101298.13;1712756;82;21239;-84
2021/03/10 08:38:00;;;;;;;9.50;5.70;;;;;;;-0.42;35.92;101300.75;1709842;82;21177;-83
2021/03/10 08:40:37;;;;;;;6.60;4.83;;;;;;;-0.46;36.41;101297.47;1717775;82;21191;-84
2021/03/10 08:43:22;;;;;;;7.03;5.90;;;;;;;-0.44;36.42;101296.91;1704473;82;21204;-84
2021/03/10 08:46:14;;;;;;;7.43;5.17;;;;;;;-0.41;36.54;101300.66;1710456;83;21109;-84
2021/03/10 08:49:00;;;;;;;5.67;4.87;;;;;;;-0.41;36.24;101292.80;1693893;83;21361;-84
2021/03/10 08:51:51;;;;;;;4.77;4.10;;;;;;;-0.41;36.36;101282.80;1699963;81;21197;-83
2021/03/10 08:55:13;;;;;;;4.80;3.77;;;;;;;-0.37;36.35;101289.53;1695403;80;21066;-86
2021/03/10 08:58:26;;;;;;;7.63;5.17;;;;;;;-0.43;36.69;101287.30;1719113;82;21253;-85
2021/03/10 09:08:26;;;;;;;5.50;4.37;;;;;;;-0.66;36.84;101289.98;1696783;82;21195;-84
2021/03/10 09:11:01;;;;;;;5.33;3.93;;;;;;;-0.68;36.88;101277.00;1701099;81;21225;-83
2021/03/10 09:13:47;;;;;;;7.47;4.27;;;;;;;-0.51;36.93;101273.36;1811645;78;23032;-82
2021/03/10 09:16:36;;;;;;;7.57;4.10;;;;;;;-0.39;37.22;101277.00;1795402;78;21132;-83
2021/03/10 09:19:13;;;;;;;6.17;4.17;;;;;;;-0.28;36.84;101287.66;1794069;79;21335;-84
2021/03/10 09:25:17;;;;;;;5.00;3.80;;;;;;;-0.29;36.28;101271.55;1799619;79;23181;-85
2021/03/10 09:28:12;;;;;;;4.67;3.03;;;;;;;-0.30;36.26;101268.58;1730887;80;21772;-85
2021/03/10 09:31:14;;;;;;;6.30;3.30;;;;;;;-0.83;36.16;101179.30;1728024;81;21316;-86
2021/03/10 09:33:49;;;;;;;4.87;3.70;;;;;;;-0.17;36.38;101272.59;1722020;82;21270;-85
2021/03/10 09:36:25;;;;;;;7.80;4.43;;;;;;;-0.05;36.58;101270.97;1689449;83;21283;-85
2021/03/10 09:38:59;;;;;;;9.17;4.23;;;;;;;0.09;36.09;101270.91;1698105;83;21180;-84
2021/03/10 09:41:58;;;;;;;7.70;4.62;;;;;;;0.14;35.36;101277.19;1687121;81;21197;-85
2021/03/10 09:44:28;;;;;;;6.03;3.77;;;;;;;0.04;35.28;101274.32;1691232;82;21034;-85
2021/03/10 09:47:01;;;;;;;5.67;3.87;;;;;;;0.00;35.49;101271.53;1660943;84;21310;-85
2021/03/10 09:49:57;;;;;;;9.70;4.20;;;;;;;0.04;35.10;101274.77;1642425;85;21311;-85
2021/03/10 09:52:37;;;;;;;4.55;3.65;;;;;;;-0.04;35.02;101280.05;1660068;84;21127;-84
2021/03/10 09:55:11;;;;;;;5.13;3.83;;;;;;;-0.09;34.93;101276.03;1677548;83;21163;-85
2021/03/10 09:57:40;;;;;;;4.83;4.33;;;;;;;-0.18;35.64;101270.06;1653570;84;21211;-83
2021/03/10 10:00:23;;;;;;;4.43;3.97;;;;;;;-0.18;36.13;101266.12;1667046;84;21347;-84
2021/03/10 10:02:52;;;;;;;7.70;4.47;;;;;;;-0.07;35.89;101266.30;1664434;85;21193;-84
2021/03/10 10:05:30;;;;;;;6.60;4.23;;;;;;;0.05;35.41;101265.50;1680984;84;21189;-84
2021/03/10 10:08:08;;;;;;;5.57;4.40;;;;;;;0.08;35.38;101268.42;1676089;84;21177;-83
2021/03/10 10:10:56;;;;;;;5.67;3.77;;;;;;;0.09;35.67;101269.61;1677477;84;21213;-84
2021/03/10 10:13:34;;;;;;;4.10;2.83;;;;;;;0.12;35.10;101272.05;1663818;84;21217;-83
2021/03/10 10:16:04;;;;;;;4.53;2.90;;;;;;;0.10;34.83;101267.84;1671504;84;21319;-84
2021/03/10 10:18:35;;;;;;;4.73;2.63;;;;;;;-0.02;34.59;101269.00;1664119;84;21177;-84
2021/03/10 10:21:09;;;;;;;3.13;2.47;;;;;;;-0.04;34.59;101266.95;1667494;84;21193;-83
2021/03/10 10:24:22;;;;;;;6.90;3.23;;;;;;;-0.04;34.80;101257.77;1622152;85;21318;-85
2021/03/10 10:27:29;;;;;;;7.87;3.07;;;;;;;0.04;35.14;101249.86;1622324;86;21171;-83
2021/03/10 10:30:24;;;;;;;8.43;3.47;;;;;;;0.06;35.02;101250.16;1631108;86;21143;-84
2021/03/10 10:32:55;;;;;;;7.73;4.10;;;;;;;0.06;34.92;101260.64;1620221;86;21233;-84
2021/03/10 10:35:26;;;;;;;8.10;3.97;;;;;;;0.02;34.86;101264.85;1671558;84;21254;-84
2021/03/10 10:38:07;;;;;;;;;;;;;;;;;;;;;
2021/03/10 10:40:28;;;;;;;5.10;4.33;;;;;;;0.06;34.91;101253.23;1676791;84;21248;-84
2021/03/10 10:43:27;;;;;;;3.83;3.50;;;;;;;0.17;34.63;101254.25;1678332;84;21201;-82
2021/03/10 10:46:05;;;;;;;4.65;2.85;;;;;;;0.16;34.12;101249.09;1642572;85;21364;-85
2021/03/10 10:49:14;;;;;;;3.57;2.73;;;;;;;0.22;33.90;101238.68;1647455;85;21319;-84
2021/03/10 10:51:53;;;;;;;5.93;4.00;;;;;;;0.26;34.08;101234.91;1663842;84;21183;-84
2021/03/10 10:54:33;;;;;;;5.97;4.30;;;;;;;0.35;33.91;101234.31;1626821;84;21340;-81
2021/03/10 10:57:06;;;;;;;6.00;4.12;;;;;;;0.28;34.44;101235.66;1640342;85;21237;-85
2021/03/10 11:00:19;;;;;;;5.13;3.53;;;;;;;0.19;34.28;101224.83;1654870;85;21186;-85
2021/03/10 11:03:31;;;;;;;7.67;3.90;;;;;;;0.21;34.24;101234.36;1656225;85;21215;-84
2021/03/10 11:06:23;;;;;;;6.03;3.13;;;;;;;0.27;34.78;101224.81;1656240;85;21974;-83
2021/03/10 11:09:09;;;;;;;6.03;3.53;;;;;;;0.35;34.44;101223.34;1642374;86;21163;-84
2021/03/10 11:12:12;;;;;;;9.30;4.13;;;;;;;0.38;34.17;101225.78;1651351;85;21263;-84
2021/03/10 11:14:42;;;;;;;4.47;2.43;;;;;;;0.44;33.65;101225.85;1643702;85;21226;-84
2021/03/10 11:17:11;;;;;;;4.50;3.03;;;;;;;0.43;33.24;101213.66;1641298;85;21208;-84
2021/03/10 11:20:09;;;;;;;4.90;3.23;;;;;;;0.49;33.40;101210.66;1639816;85;21214;-83
2021/03/10 11:22:59;;;;;;;7.03;4.07;;;;;;;0.48;33.75;101211.58;1631759;83;21912;-85
2021/03/10 11:25:50;;;;;;;5.43;3.23;;;;;;;0.11;33.76;101144.51;1640133;85;21213;-83
2021/03/10 11:28:19;;;;;;;5.53;3.77;;;;;;;0.67;33.60;101207.74;1642929;85;21322;-84
2021/03/10 11:30:52;;;;;;;8.03;2.93;;;;;;;0.71;33.33;101202.65;1616911;87;21178;-83
2021/03/10 11:33:21;;;;;;;4.37;2.47;;;;;;;0.71;32.82;101192.98;1649418;83;21173;-84
2021/03/10 11:36:24;;;;;;;;;;;;;;;;;;;;;
2021/03/10 11:39:18;;;;;;;5.13;2.80;;;;;;;0.73;31.94;101208.63;1654947;85;21698;-84
2021/03/10 11:44:44;;;;;;;4.23;3.27;;;;;;;0.51;33.06;101193.03;1820963;77;22850;-84
2021/03/10 11:47:24;;;;;;;8.27;4.27;;;;;;;0.47;33.02;101212.99;1824572;78;21497;-84
2021/03/10 11:50:21;;;;;;;4.07;3.40;;;;;;;0.35;33.46;101197.13;1797872;78;21298;-84
2021/03/10 11:53:08;;;;;;;9.07;3.27;;;;;;;0.38;33.71;101196.94;1793758;78;21116;-84
2021/03/10 11:55:39;;;;;;;7.80;3.67;;;;;;;0.47;33.69;101188.07;1811438;78;22255;-83
2021/03/10 11:58:09;;;;;;;5.90;3.70;;;;;;;0.52;33.77;101191.23;1784505;77;21139;-83
2021/03/10 12:00:41;;;;;;;3.87;3.10;;;;;;;0.53;33.49;101190.31;1766271;80;21003;-84
2021/03/10 12:03:16;;;;;;;8.00;3.90;;;;;;;0.51;33.36;101188.23;1772216;79;21284;-85
2021/03/10 12:06:13;;;;;;;5.77;3.17;;;;;;;0.52;33.38;101182.89;1785533;79;21147;-85
2021/03/10 12:09:00;;;;;;;5.33;3.07;;;;;;;0.47;33.33;101179.75;1736301;81;21321;-86
2021/03/10 12:11:30;;;;;;;4.30;2.87;;;;;;;0.51;33.71;101176.42;1749203;80;21067;-84
2021/03/10 12:14:19;;;;;;;4.07;3.10;;;;;;;0.53;33.43;101162.28;1713067;82;21767;-86
2021/03/10 12:16:49;;;;;;;6.20;3.87;;;;;;;0.53;33.05;101173.26;1742555;81;21163;-86
2021/03/10 12:19:23;;;;;;;8.70;3.37;;;;;;;-0.18;33.00;101070.91;1694441;82;21375;-84
2021/03/10 12:21:52;;;;;;;3.27;2.63;;;;;;;0.41;33.06;101164.41;1749352;81;21172;-85
2021/03/10 12:24:24;;;;;;;5.80;3.70;;;;;;;0.44;33.02;101166.00;1755281;80;21499;-84
2021/03/10 12:27:29;;;;;;;4.23;2.80;;;;;;;0.49;33.43;101162.13;1753914;79;21148;-88
2021/03/10 12:30:02;;;;;;;7.10;3.27;;;;;;;0.47;33.10;101156.14;1769450;79;21182;-84
2021/03/10 12:32:35;;;;;;;5.00;3.80;;;;;;;-0.59;32.85;100990.98;1745187;79;21779;-84